Time;durP1;ratioP1;P1;durP2;ratioP2;P2;SDS_P1;SDS_P2;PMS_P1;PMS_P2;Temp;Humidity;BMP_temperature;BMP_pressure;BME280_temperature;BME280_humidity;BME280_pressure;Samples;Min_cycle;Max_cycle;Signal;HPM_P1;HPM_P2
2023/01/01 00:01:05;;;;;;;272.92;161.52;;;;;;;;;;4976853;28;20030;-90
2023/01/01 00:03:31;;;;;;;172.13;106.93;;;;;;;;;;4994776;28;20025;-89
2023/01/01 00:05:57;;;;;;;217.68;129.57;;;;;;;;;;4994351;28;20029;-90
2023/01/01 00:08:23;;;;;;;203.50;127.53;;;;;;;;;;4994535;28;20085;-88
2023/01/01 00:10:50;;;;;;;191.52;120.53;;;;;;;;;;4994536;28;20098;-90
2023/01/01 00:19:13;;;;;;;172.82;113.25;;;;;;;;;;4994669;28;20049;-90
2023/01/01 00:21:40;;;;;;;211.13;132.32;;;;;;;;;;4963677;28;20058;-88
2023/01/01 00:24:06;;;;;;;163.18;102.22;;;;;;;;;;4955041;28;20023;-88
2023/01/01 00:26:38;;;;;;;173.77;111.90;;;;;;;;;;4955136;28;20023;-89
2023/01/01 00:29:16;;;;;;;156.00;98.80;;;;;;;;;;4975641;28;20073;-88
2023/01/01 00:31:51;;;;;;;156.88;96.38;;;;;;;;;;4974509;28;20022;-88
2023/01/01 00:34:24;;;;;;;120.93;78.28;;;;;;;;;;4975898;28;20473;-88
2023/01/01 00:37:10;;;;;;;129.10;83.28;;;;;;;;;;4975166;28;20085;-88
2023/01/01 00:40:00;;;;;;;149.82;93.72;;;;;;;;;;4962784;28;20126;-88
2023/01/01 01:02:55;;;;;;;318.65;174.68;;;;;;;;;;4989266;28;20037;-88
2023/01/01 01:05:23;;;;;;;255.20;148.07;;;;;;;;;;4994746;28;20019;-87
2023/01/01 01:07:49;;;;;;;240.75;142.95;;;;;;;;;;4993252;28;20109;-88
2023/01/01 01:10:15;;;;;;;228.90;139.18;;;;;;;;;;4992963;28;20038;-88
2023/01/01 01:12:42;;;;;;;252.00;141.57;;;;;;;;;;4993208;28;20082;-87
2023/01/01 01:15:09;;;;;;;235.45;139.57;;;;;;;;;;4993287;28;20026;-88
2023/01/01 01:17:36;;;;;;;222.40;132.35;;;;;;;;;;4993401;28;20088;-88
2023/01/01 01:20:02;;;;;;;225.75;132.60;;;;;;;;;;4993399;28;20026;-89
2023/01/01 01:22:28;;;;;;;263.13;153.95;;;;;;;;;;4985870;28;20042;-88
2023/01/01 01:24:55;;;;;;;253.70;155.05;;;;;;;;;;4973469;28;20030;-89
2023/01/01 01:27:21;;;;;;;217.68;131.32;;;;;;;;;;4973665;28;20089;-89
2023/01/01 01:29:47;;;;;;;168.02;101.95;;;;;;;;;;4974125;28;20378;-90
2023/01/01 01:32:13;;;;;;;174.00;103.55;;;;;;;;;;4974057;28;20030;-89
2023/01/01 01:34:42;;;;;;;183.95;109.70;;;;;;;;;;4974306;28;20031;-88
2023/01/01 01:39:53;;;;;;;249.05;136.50;;;;;;;;;;4975908;28;20038;-88
2023/01/01 01:42:23;;;;;;;231.35;131.73;;;;;;;;;;4975024;28;20045;-90
2023/01/01 01:50:42;;;;;;;241.30;138.82;;;;;;;;;;4979969;28;20418;-88
2023/01/01 01:53:15;;;;;;;268.35;153.38;;;;;;;;;;4981539;28;20106;-88
2023/01/01 01:55:47;;;;;;;268.42;154.55;;;;;;;;;;4979577;28;20030;-89
2023/01/01 01:58:16;;;;;;;223.07;131.03;;;;;;;;;;4979675;28;20035;-88
2023/01/01 02:00:42;;;;;;;245.65;141.10;;;;;;;;;;4980682;28;20299;-90
2023/01/01 02:08:40;;;;;;;317.75;179.80;;;;;;;;;;4977069;28;20038;-86
2023/01/01 02:11:07;;;;;;;317.73;177.65;;;;;;;;;;4960772;28;20038;-89
2023/01/01 02:13:34;;;;;;;184.95;113.60;;;;;;;;;;4977578;28;20470;-89
2023/01/01 02:16:40;;;;;;;260.40;147.98;;;;;;;;;;4977644;28;20478;-87
2023/01/01 02:19:43;;;;;;;217.32;120.78;;;;;;;;;;4943030;28;20035;-89
2023/01/01 02:35:33;;;;;;;280.77;152.20;;;;;;;;;;4969243;28;20402;-88
2023/01/01 02:46:19;;;;;;;270.73;150.80;;;;;;;;;;4958188;28;20615;-88
2023/01/01 02:54:55;;;;;;;214.48;133.05;;;;;;;;;;4957656;28;19914;-90
2023/01/01 03:13:45;;;;;;;151.75;93.95;;;;;;;;;;4957680;28;20054;-88
2023/01/01 03:17:05;;;;;;;248.25;127.30;;;;;;;;;;4946900;28;20114;-87
2023/01/01 03:56:58;;;;;;;116.00;65.65;;;;;;;;;;4939963;29;20146;-86
2023/01/01 07:51:00;;;;;;;128.13;77.55;;;;;;;;;;5065219;23;20449;-86
2023/01/01 08:23:27;;;;;;;186.50;110.97;;;;;;;;;;5070180;23;20089;-86
2023/01/01 08:30:14;;;;;;;117.28;70.38;;;;;;;;;;5000689;23;20074;-87
2023/01/01 08:44:04;;;;;;;115.93;68.88;;;;;;;;;;4996329;28;20516;-89
2023/01/01 08:56:33;;;;;;;103.60;61.75;;;;;;;;;;5002107;28;20121;-88
2023/01/01 09:03:07;;;;;;;118.50;72.38;;;;;;;;;;4999416;28;20085;-88
2023/01/01 09:06:16;;;;;;;142.45;95.15;;;;;;;;;;4920590;29;20392;-88
2023/01/01 09:09:01;;;;;;;134.82;91.15;;;;;;;;;;4901202;29;20044;-89
2023/01/01 09:36:40;;;;;;;98.05;64.30;;;;;;;;;;4985784;28;20513;-89
2023/01/01 09:52:05;;;;;;;67.85;46.53;;;;;;;;;;4975806;28;20030;-90
2023/01/01 09:54:55;;;;;;;77.38;53.63;;;;;;;;;;4954621;28;20026;-90
2023/01/01 10:00:45;;;;;;;77.10;50.88;;;;;;;;;;4956924;29;20438;-90
2023/01/01 10:12:21;;;;;;;;;;;;;;;;;;4991377;28;20078;-89
2023/01/01 10:14:53;;;;;;;79.20;50.58;;;;;;;;;;4979986;28;19914;-89
2023/01/01 10:17:22;;;;;;;58.13;43.13;;;;;;;;;;4979642;28;20125;-92
2023/01/01 10:19:50;;;;;;;81.38;58.45;;;;;;;;;;4979742;28;20050;-91
2023/01/01 10:22:25;;;;;;;60.47;43.92;;;;;;;;;;4969761;28;20035;-91
2023/01/01 10:24:59;;;;;;;68.30;54.17;;;;;;;;;;4960415;28;20035;-89
2023/01/01 10:27:35;;;;;;;63.78;46.95;;;;;;;;;;4980555;28;20054;-91
2023/01/01 10:30:02;;;;;;;54.60;40.38;;;;;;;;;;4981662;28;20478;-90
2023/01/01 10:32:28;;;;;;;44.15;30.70;;;;;;;;;;4988135;28;20057;-91
2023/01/01 10:34:54;;;;;;;51.00;31.25;;;;;;;;;;4990966;28;20017;-90
2023/01/01 10:37:21;;;;;;;42.03;31.23;;;;;;;;;;4986702;28;20027;-91
2023/01/01 10:39:47;;;;;;;42.67;30.27;;;;;;;;;;4978816;28;20410;-90
2023/01/01 10:42:15;;;;;;;41.20;25.75;;;;;;;;;;4984967;28;20046;-90
2023/01/01 10:44:41;;;;;;;33.72;22.73;;;;;;;;;;4990081;28;20019;-90
2023/01/01 10:47:27;;;;;;;30.40;24.40;;;;;;;;;;4979990;28;20033;-89
2023/01/01 10:50:06;;;;;;;39.78;30.30;;;;;;;;;;4979698;28;20019;-89
2023/01/01 10:52:35;;;;;;;42.72;30.70;;;;;;;;;;4979121;28;20027;-90
2023/01/01 10:55:01;;;;;;;41.85;29.00;;;;;;;;;;4996527;28;20034;-92
2023/01/01 10:57:31;;;;;;;36.88;26.83;;;;;;;;;;4989127;28;20046;-89
2023/01/01 11:00:18;;;;;;;48.15;34.35;;;;;;;;;;4978568;28;20110;-91
2023/01/01 11:02:44;;;;;;;52.25;37.65;;;;;;;;;;4978326;28;20038;-89
2023/01/01 11:05:12;;;;;;;64.10;44.50;;;;;;;;;;4985829;28;20026;-92
2023/01/01 11:07:40;;;;;;;67.53;43.63;;;;;;;;;;4978603;28;20390;-88
2023/01/01 11:10:07;;;;;;;64.05;46.50;;;;;;;;;;4978533;28;20113;-87
2023/01/01 11:12:37;;;;;;;48.22;37.42;;;;;;;;;;4977397;28;20018;-89
2023/01/01 11:15:04;;;;;;;58.80;41.80;;;;;;;;;;4978440;28;20018;-90
2023/01/01 11:17:31;;;;;;;45.22;33.47;;;;;;;;;;4976129;28;20031;-88
2023/01/01 11:19:58;;;;;;;52.17;36.13;;;;;;;;;;4978115;28;20034;-84
2023/01/01 11:22:45;;;;;;;55.67;41.58;;;;;;;;;;4991070;28;20022;-85
2023/01/01 11:25:28;;;;;;;59.30;42.78;;;;;;;;;;4978284;28;20382;-86
2023/01/01 11:27:54;;;;;;;;;;;;;;;;;;4978911;28;20517;-87
2023/01/01 11:30:20;;;;;;;72.18;52.85;;;;;;;;;;4994400;28;19906;-87
2023/01/01 11:32:48;;;;;;;126.80;78.28;;;;;;;;;;4994023;28;20059;-85
2023/01/01 11:35:18;;;;;;;181.30;120.40;;;;;;;;;;4983493;28;20030;-87
2023/01/01 11:37:45;;;;;;;138.10;93.63;;;;;;;;;;4977808;28;20022;-85
2023/01/01 11:40:36;;;;;;;105.70;78.80;;;308.00;2304.00;;;;;;4994023;28;20089;-85
2023/01/01 11:43:02;;;;;;;96.00;70.45;;;;;;;;;;4995516;28;20198;-84
2023/01/01 11:45:35;;;;;;;82.38;60.78;;;;;;;;;;4975981;28;20031;-84
2023/01/01 11:48:04;;;;;;;76.70;59.80;;;;;;;;;;4976850;28;20081;-82
2023/01/01 11:50:38;;;;;;;68.47;51.75;;;333.10;2329.60;;;;;;4992358;28;20064;-83
2023/01/01 11:53:27;;;;;;;73.03;52.80;;;;;;;;;;4984830;28;20036;-81
2023/01/01 11:55:58;;;;;;;59.92;45.17;;;333.70;2329.60;;;;;;4994632;28;20022;-82
2023/01/01 11:58:47;;;;;;;59.88;41.05;;;333.70;2329.60;;;;;;4994858;28;20101;-80
2023/01/01 12:01:45;;;;;;;62.88;45.95;;;358.50;2329.60;;;;;;4984203;28;20029;-83
2023/01/01 12:04:37;;;;;;;57.92;43.53;;;358.60;2329.60;;;;;;4977599;28;20027;-82
2023/01/01 12:07:07;;;;;;;63.08;43.53;;;;;;;;;;4977612;28;20038;-83
2023/01/01 12:09:46;;;;;;;145.10;86.60;;;359.00;2329.60;;;;;;4977563;28;20049;-82
2023/01/01 12:12:38;;;;;;;69.75;43.13;;;359.00;2329.60;;;;;;4994951;28;20081;-81
2023/01/01 12:15:30;;;;;;;76.20;49.10;;;384.00;2329.60;;;;;;4977571;28;20418;-81
2023/01/01 12:17:59;;;;;;;84.30;54.78;;;;;;;;;;4977921;28;20430;-81
2023/01/01 12:20:32;;;;;;;91.35;63.45;;;384.10;2329.60;;;;;;4994873;28;20367;-80
2023/01/01 12:22:58;;;;;;;77.30;53.50;;;384.20;2329.60;;;;;;4977190;28;20037;-82
2023/01/01 12:25:48;;;;;;;77.65;55.88;;;384.30;2329.60;;;;;;4977463;28;20030;-82
2023/01/01 12:28:59;;;;;;;46.05;33.35;;;384.20;2329.60;;;;;;4995889;28;20096;-83
2023/01/01 12:31:40;;;;;;;55.85;42.70;;;384.20;2329.60;;;;;;4982524;28;20050;-85
2023/01/01 12:34:37;;;;;;;50.42;37.17;;;384.40;2329.60;;;;;;4997112;28;20417;-82
2023/01/01 12:37:28;;;;;;;55.05;39.40;;;384.40;2329.60;;;;;;4954069;28;20034;-83
2023/01/01 12:40:22;;;;;;;43.92;33.05;;;384.30;2329.60;;;;;;4976867;28;20054;-82
2023/01/01 12:43:13;;;;;;;46.15;33.05;;;384.20;2329.60;;;;;;4986789;28;20045;-84
2023/01/01 12:45:57;;;;;;;52.65;38.65;;;384.20;2329.60;;;;;;4976694;28;20030;-85
2023/01/01 12:48:51;;;;;;;44.97;32.75;;;384.10;2329.60;;;;;;4993189;28;20125;-82
2023/01/01 12:51:30;;;;;;;41.72;32.22;;;384.10;2329.60;;;;;;4976789;28;20030;-82
2023/01/01 12:54:01;;;;;;;46.67;34.72;;;384.00;2329.60;;;;;;4994201;28;20031;-83
2023/01/01 12:56:53;;;;;;;50.53;36.78;;;359.30;2329.60;;;;;;4989996;28;20447;-83
2023/01/01 12:59:42;;;;;;;47.40;36.58;;;359.30;2329.60;;;;;;4994040;28;20023;-84
2023/01/01 13:02:29;;;;;;;38.70;29.90;;;359.30;2329.60;;;;;;4960325;28;20038;-81
2023/01/01 13:05:18;;;;;;;40.70;30.23;;;359.30;2329.60;;;;;;4976510;28;20367;-83
2023/01/01 13:07:47;;;;;;;46.25;33.28;;;359.30;2329.60;;;;;;4992897;28;20536;-83
2023/01/01 13:10:28;;;;;;;44.67;33.22;;;359.30;2329.60;;;;;;4992928;28;20030;-82
2023/01/01 13:12:55;;;;;;;49.33;36.83;;;384.10;2329.60;;;;;;4992662;28;20027;-83
2023/01/01 13:15:37;;;;;;;48.05;33.75;;;384.20;2329.60;;;;;;4992921;28;20533;-81
2023/01/01 13:18:12;;;;;;;40.28;31.95;;;384.40;2329.60;;;;;;4975442;28;20030;-82
2023/01/01 13:20:40;;;;;;;34.13;25.75;;;384.40;2329.60;;;;;;4976320;28;20061;-81
2023/01/01 13:23:37;;;;;;;28.85;24.35;;;384.50;2329.60;;;;;;4975309;28;20050;-82
2023/01/01 13:26:19;;;;;;;32.78;22.63;;;384.70;2329.60;;;;;;4993268;28;20031;-81
2023/01/01 13:28:56;;;;;;;29.20;19.65;;;384.60;2329.60;;;;;;4975674;28;20034;-79
2023/01/01 13:31:38;;;;;;;29.80;20.38;;;384.70;2329.60;;;;;;4960688;28;20045;-80
2023/01/01 13:34:28;;;;;;;27.13;22.15;;;384.60;2329.60;;;;;;4993651;28;20462;-81
2023/01/01 13:37:18;;;;;;;40.42;26.88;;;384.60;2329.60;;;;;;4996905;28;20035;-79
2023/01/01 13:40:04;;;;;;;64.65;44.45;;;384.40;2329.60;;;;;;4977404;28;20051;-83
2023/01/01 13:42:39;;;;;;;61.55;42.28;;;384.30;2329.60;;;;;;5010129;28;20061;-82
2023/01/01 13:45:33;;;;;;;76.35;47.25;;;384.10;2329.60;;;;;;4983011;28;20054;-82
2023/01/01 13:48:17;;;;;;;43.13;29.50;;;359.20;2329.60;;;;;;5004445;28;20441;-81
2023/01/01 13:51:16;;;;;;;51.35;34.38;;;359.10;2329.60;;;;;;4994559;28;20022;-81
2023/01/01 13:54:17;;;;;;;95.72;62.25;;;359.00;2329.60;;;;;;4972886;28;20030;-81
2023/01/01 13:56:56;;;;;;;76.45;52.10;;;359.00;2329.60;;;;;;4999208;28;20056;-80
2023/01/01 13:59:40;;;;;;;76.10;51.72;;;359.00;2329.60;;;;;;4983555;28;20028;-82
2023/01/01 14:02:26;;;;;;;45.72;34.67;;;359.00;2329.60;;;;;;5006584;28;20025;-82
2023/01/01 14:04:55;;;;;;;37.28;27.70;;;;;;;;;;4995347;28;20029;-82
2023/01/01 14:07:21;;;;;;;40.30;29.23;;;;;;;;;;4998822;28;20065;-83
2023/01/01 14:09:47;;;;;;;59.67;41.47;;;;;;;;;;4980395;28;20015;-83
2023/01/01 14:12:16;;;;;;;79.85;52.97;;;;;;;;;;4988763;28;20109;-81
2023/01/01 14:14:42;;;;;;;57.22;39.78;;;;;;;;;;4992213;28;20106;-82
2023/01/01 14:17:08;;;;;;;63.47;43.08;;;;;;;;;;4974824;28;20374;-82
2023/01/01 14:19:35;;;;;;;196.18;133.27;;;;;;;;;;4994815;28;20018;-84
2023/01/01 14:22:04;;;;;;;147.68;103.45;;;358.50;2329.60;;;;;;4974549;28;20035;-80
2023/01/01 14:24:31;;;;;;;174.70;117.38;;;333.70;2329.60;;;;;;4972663;28;20027;-82
2023/01/01 14:26:58;;;;;;;95.03;68.30;;;333.50;2329.60;;;;;;4976484;28;20025;-80
2023/01/01 14:29:24;;;;;;;92.60;64.68;;;;;;;;;;4986150;28;20124;-78
2023/01/01 14:31:50;;;;;;;124.25;82.07;;;;;;;;;;4995920;28;20431;-79
2023/01/01 14:34:34;;;;;;;109.90;73.90;;;;;;;;;;4991668;28;20049;-80
2023/01/01 14:37:02;;;;;;;144.65;98.97;;;333.40;2329.60;;;;;;4993234;28;20025;-80
2023/01/01 14:39:30;;;;;;;136.23;93.25;;;333.20;2329.60;;;;;;4997619;28;20043;-85
2023/01/01 14:42:09;;;;;;;153.98;103.63;;;333.10;2329.60;;;;;;4967714;28;20026;-78
2023/01/01 14:44:42;;;;;;;126.60;90.38;;;333.00;2329.60;;;;;;4987387;28;20446;-80
2023/01/01 14:47:26;;;;;;;104.97;71.22;;;332.90;2329.60;;;;;;4974677;28;20174;-81
2023/01/01 14:49:53;;;;;;;79.95;60.65;;;;;;;;;;4984978;28;20030;-82
2023/01/01 14:52:24;;;;;;;86.05;60.22;;;;;;;;;;4988003;28;20046;-82
2023/01/01 14:54:51;;;;;;;79.10;57.70;;;332.80;2329.60;;;;;;4986346;28;20113;-80
2023/01/01 14:57:22;;;;;;;80.90;53.72;;;307.90;2304.00;;;;;;5004403;28;20033;-82
2023/01/01 14:59:53;;;;;;;74.60;51.05;;;307.80;2304.00;;;;;;5003698;28;20466;-84
2023/01/01 15:02:23;;;;;;;67.35;48.10;;;;;;;;;;4985485;28;20026;-83
2023/01/01 15:04:50;;;;;;;68.63;48.50;;;;;;;;;;5015241;28;20028;-82
2023/01/01 15:07:22;;;;;;;61.90;42.00;;;;;;;;;;5005780;28;20030;-82
2023/01/01 15:09:48;;;;;;;57.58;40.65;;;;;;;;;;4978194;28;20069;-80
2023/01/01 15:12:16;;;;;;;51.42;35.20;;;;;;;;;;4992188;28;20141;-82
2023/01/01 15:14:44;;;;;;;54.03;38.08;;;;;;;;;;4986460;28;20085;-87
2023/01/01 15:17:28;;;;;;;48.67;35.70;;;;;;;;;;4987723;28;20097;-82
2023/01/01 15:20:03;;;;;;;106.63;70.72;;;;;;;;;;4986767;28;20022;-83
2023/01/01 15:22:31;;;;;;;62.67;42.35;;;;;;;;;;4987484;28;20029;-84
2023/01/01 15:24:59;;;;;;;73.88;49.45;;;282.50;2278.40;;;;;;5006316;28;20068;-83
2023/01/01 15:27:29;;;;;;;69.13;50.10;;;;;;;;;;4981298;28;20034;-84
2023/01/01 15:29:56;;;;;;;86.88;62.92;;;;;;;;;;4989145;28;20018;-84
2023/01/01 15:32:31;;;;;;;77.93;53.55;;;;;;;;;;4985270;28;20065;-80
2023/01/01 15:35:02;;;;;;;123.85;87.13;;;;;;;;;;4985617;28;20022;-83
2023/01/01 15:37:45;;;;;;;127.10;89.85;;;282.10;2278.40;;;;;;4996607;28;20025;-82
2023/01/01 15:40:14;;;;;;;123.30;87.25;;;282.00;2278.40;;;;;;5014836;28;20050;-85
2023/01/01 15:42:47;;;;;;;100.47;71.60;;;281.90;2278.40;;;;;;4978086;28;20462;-82
2023/01/01 15:45:22;;;;;;;94.07;67.80;;;;;;;;;;4977695;28;20474;-82
2023/01/01 15:47:53;;;;;;;77.13;58.97;;;282.00;2278.40;;;;;;4977819;28;20085;-85
2023/01/01 15:50:27;;;;;;;81.47;56.15;;;;;;;;;;4977876;28;20528;-87
2023/01/01 15:52:55;;;;;;;57.47;43.33;;;;;;;;;;4963325;28;20035;-85
2023/01/01 15:55:21;;;;;;;49.42;37.53;;;;;;;;;;4982988;28;20022;-84
2023/01/01 15:57:48;;;;;;;56.58;38.20;;;;;;;;;;4986329;28;20022;-85
2023/01/01 16:00:22;;;;;;;74.43;50.70;;;;;;;;;;4985164;28;20069;-86
2023/01/01 16:02:49;;;;;;;91.72;58.70;;;;;;;;;;4984632;28;20030;-86
2023/01/01 16:05:17;;;;;;;85.55;58.47;;;;;;;;;;4997809;28;20117;-88
2023/01/01 16:07:44;;;;;;;96.80;67.95;;;;;;;;;;4997357;28;20033;-87
2023/01/01 16:10:14;;;;;;;81.88;55.03;;;;;;;;;;4997612;28;20022;-88
2023/01/01 16:12:40;;;;;;;81.95;53.85;;;;;;;;;;4997589;28;20382;-88
2023/01/01 16:15:07;;;;;;;65.07;49.25;;;;;;;;;;4997154;28;20065;-87
2023/01/01 16:17:33;;;;;;;74.68;53.20;;;;;;;;;;4997396;28;20037;-88
2023/01/01 16:19:59;;;;;;;82.55;60.53;;;256.60;2252.80;;;;;;4997098;28;20022;-87
2023/01/01 16:22:25;;;;;;;96.13;66.15;;;;;;;;;;4997398;28;20017;-88
2023/01/01 16:24:53;;;;;;;120.15;84.88;;;;;;;;;;4997431;28;20177;-88
2023/01/01 16:27:19;;;;;;;101.25;73.25;;;;;;;;;;4996815;28;20037;-86
2023/01/01 16:29:45;;;;;;;134.02;93.53;;;;;;;;;;4997054;28;20026;-89
2023/01/01 16:32:16;;;;;;;151.60;104.25;;;;;;;;;;4997321;28;20022;-90
2023/01/01 16:34:42;;;;;;;187.15;124.95;;;;;;;;;;4997281;28;20060;-89
2023/01/01 16:37:08;;;;;;;185.20;123.30;;;;;;;;;;4997025;28;20037;-90
2023/01/01 16:39:34;;;;;;;187.88;124.35;;;;;;;;;;4996590;28;20050;-88
2023/01/01 16:42:00;;;;;;;217.32;140.85;;;;;;;;;;4996690;28;20117;-86
2023/01/01 16:44:26;;;;;;;268.48;176.10;;;;;;;;;;4996845;28;20030;-85
2023/01/01 16:46:52;;;;;;;269.80;179.60;;;;;;;;;;4996860;28;20478;-86
2023/01/01 16:49:18;;;;;;;278.05;184.80;;;;;;;;;;4996514;28;20474;-86
2023/01/01 16:51:44;;;;;;;283.85;197.30;;;;;;;;;;4997145;28;20381;-91
2023/01/01 16:54:11;;;;;;;260.63;180.90;;;;;;;;;;4997226;28;20026;-91
2023/01/01 16:56:37;;;;;;;254.70;182.60;;;;;;;;;;4997628;28;20029;-91
2023/01/01 16:59:03;;;;;;;245.10;167.35;;;256.00;2252.80;;;;;;5014207;28;20083;-90
2023/01/01 17:01:29;;;;;;;239.80;169.70;;;231.20;2252.80;;;;;;4997322;28;20113;-87
2023/01/01 17:03:54;;;;;;;260.15;182.65;;;231.20;2252.80;;;;;;4997247;28;20033;-91
2023/01/01 17:06:20;;;;;;;302.23;212.30;;;231.10;2252.80;;;;;;4996961;28;20026;-90
2023/01/01 17:08:46;;;;;;;309.52;213.35;;;231.20;2252.80;;;;;;5014264;28;20049;-91
2023/01/01 17:11:15;;;;;;;323.25;222.43;;;231.10;2252.80;;;;;;4997207;28;20026;-88
2023/01/01 17:13:45;;;;;;;382.65;256.10;;;231.00;2252.80;;;;;;4996555;28;20050;-89
2023/01/01 17:16:11;;;;;;;482.92;324.35;;;231.00;2252.80;;;;;;5001092;28;20026;-90
2023/01/01 17:18:37;;;;;;;481.80;315.48;;;;;;;;;;4992254;28;20026;-92
2023/01/01 17:21:08;;;;;;;469.85;301.92;;;;;;;;;;4986362;28;20054;-89
2023/01/01 17:23:38;;;;;;;452.73;290.10;;;;;;;;;;4977084;28;20050;-92
2023/01/01 17:26:21;;;;;;;486.67;320.33;;;;;;;;;;4990536;28;20072;-88
2023/01/01 17:28:48;;;;;;;480.25;311.77;;;;;;;;;;5000313;28;20084;-91
2023/01/01 17:31:23;;;;;;;497.05;332.20;;;;;;;;;;5000101;28;20037;-89
2023/01/01 17:33:51;;;;;;;537.92;364.98;;;;;;;;;;5017838;28;20044;-89
2023/01/01 17:36:17;;;;;;;506.00;340.73;;;;;;;;;;5000106;28;20084;-89
2023/01/01 17:38:44;;;;;;;454.42;305.60;;;;;;;;;;4998035;28;20029;-86
2023/01/01 17:41:12;;;;;;;428.85;280.92;;;;;;;;;;4979195;28;20042;-90
2023/01/01 17:43:39;;;;;;;396.02;262.00;;;;;;;;;;4982974;28;20029;-89
2023/01/01 17:46:06;;;;;;;411.63;273.98;;;;;;;;;;4995943;28;20046;-85
2023/01/01 17:48:33;;;;;;;391.70;269.60;;;;;;;;;;4979933;28;20042;-88
2023/01/01 17:50:59;;;;;;;464.30;315.50;;;;;;;;;;4976563;28;20077;-88
2023/01/01 17:53:25;;;;;;;387.58;265.48;;;;;;;;;;4961012;28;20019;-88
2023/01/01 17:55:51;;;;;;;337.48;232.18;;;;;;;;;;4977695;28;20033;-88
2023/01/01 17:58:17;;;;;;;351.58;237.20;;;;;;;;;;4995386;28;20077;-91
2023/01/01 18:00:43;;;;;;;429.08;277.27;;;;;;;;;;4996321;28;20027;-91
2023/01/01 18:03:13;;;;;;;421.35;283.60;;;;;;;;;;4986756;28;20026;-90
2023/01/01 18:05:39;;;;;;;410.45;283.00;;;;;;;;;;4979736;28;20026;-90
2023/01/01 18:08:05;;;;;;;466.67;321.00;;;;;;;;;;4995555;28;20508;-89
2023/01/01 18:10:31;;;;;;;362.17;256.33;;;205.50;2252.80;;;;;;4980103;28;20076;-90
2023/01/01 18:12:57;;;;;;;378.05;258.70;;;;;;;;;;4979934;28;20030;-89
2023/01/01 18:15:24;;;;;;;414.73;280.52;;;;;;;;;;4979759;28;20113;-88
2023/01/01 18:17:50;;;;;;;443.60;295.48;;;;;;;;;;4979717;28;20050;-90
2023/01/01 18:20:19;;;;;;;368.27;251.95;;;;;;;;;;4979547;28;20104;-90
2023/01/01 18:22:45;;;;;;;350.70;235.70;;;;;;;;;;4989608;28;20105;-89
2023/01/01 18:25:12;;;;;;;248.63;166.98;;;;;;;;;;4979566;28;20058;-90
2023/01/01 18:27:38;;;;;;;211.63;141.10;;;;;;;;;;4978481;28;20065;-89
2023/01/01 18:30:04;;;;;;;181.75;121.82;;;;;;;;;;4975997;28;20038;-87
2023/01/01 18:32:31;;;;;;;182.80;120.05;;;;;;;;;;4979926;28;20029;-87
2023/01/01 18:34:57;;;;;;;201.63;132.55;;;;;;;;;;4979941;28;20022;-89
2023/01/01 18:37:22;;;;;;;201.75;137.43;;;205.30;2252.80;;;;;;4996050;28;20572;-89
2023/01/01 18:39:49;;;;;;;240.88;160.55;;;;;;;;;;4980113;28;20082;-88
2023/01/01 18:42:21;;;;;;;292.25;199.90;;;;;;;;;;4980114;28;20068;-89
2023/01/01 18:44:47;;;;;;;293.20;197.20;;;;;;;;;;4979066;28;20109;-87
2023/01/01 18:47:15;;;;;;;347.00;232.68;;;;;;;;;;4960534;28;20061;-88
2023/01/01 18:50:00;;;;;;;346.02;234.45;;;;;;;;;;4962548;28;20031;-88
2023/01/01 18:52:27;;;;;;;351.80;233.40;;;;;;;;;;4979705;28;20042;-88
2023/01/01 18:54:59;;;;;;;359.75;249.60;;;;;;;;;;4994955;28;20117;-88
2023/01/01 18:57:25;;;;;;;399.70;279.17;;;;;;;;;;4994931;28;20061;-89
2023/01/01 18:59:51;;;;;;;462.98;325.90;;;;;;;;;;4995265;28;20488;-88
2023/01/01 19:02:25;;;;;;;510.13;369.67;;;;;;;;;;4995087;28;20041;-88
2023/01/01 19:04:51;;;;;;;496.27;354.70;;;;;;;;;;4979028;28;20019;-89
2023/01/01 19:07:17;;;;;;;465.08;326.52;;;;;;;;;;4978785;28;20101;-88
2023/01/01 19:09:43;;;;;;;477.85;338.63;;;;;;;;;;4979044;28;20030;-89
2023/01/01 19:12:10;;;;;;;465.52;320.90;;;;;;;;;;4978610;28;20015;-89
2023/01/01 19:14:36;;;;;;;471.85;326.50;;;;;;;;;;4997993;28;20385;-88
2023/01/01 19:17:11;;;;;;;457.83;321.75;;;;;;;;;;4986582;28;20034;-89
2023/01/01 19:19:39;;;;;;;465.98;326.80;;;;;;;;;;4978587;28;20023;-89
2023/01/01 19:22:24;;;;;;;478.85;337.33;;;;;;;;;;4998299;28;20018;-91
2023/01/01 19:24:53;;;;;;;470.20;325.02;;;;;;;;;;4989544;28;20498;-92
2023/01/01 19:27:20;;;;;;;529.00;344.67;;;204.90;2252.80;;;;;;4993536;28;20037;-89
2023/01/01 19:29:48;;;;;;;540.45;345.50;;;204.80;2252.80;;;;;;4998260;28;20109;-89
2023/01/01 19:32:17;;;;;;;608.53;376.90;;;204.80;2252.80;;;;;;4997669;28;20026;-88
2023/01/01 19:34:43;;;;;;;439.92;293.00;;;180.00;2252.80;;;;;;4997972;28;20052;-90
2023/01/01 19:37:18;;;;;;;395.73;273.35;;;179.90;2252.80;;;;;;4997995;28;20453;-88
2023/01/01 19:39:44;;;;;;;369.17;252.55;;;;;;;;;;4996507;28;20061;-88
2023/01/01 19:42:11;;;;;;;364.20;251.32;;;;;;;;;;4991940;28;20061;-89
2023/01/01 19:44:37;;;;;;;388.58;268.48;;;;;;;;;;4978847;28;20057;-89
2023/01/01 19:47:03;;;;;;;394.73;273.17;;;;;;;;;;4978082;28;20045;-86
2023/01/01 19:49:32;;;;;;;368.35;248.20;;;;;;;;;;4978049;28;20359;-87
2023/01/01 19:51:59;;;;;;;371.92;247.02;;;;;;;;;;4977802;28;20045;-89
2023/01/01 19:54:25;;;;;;;402.35;270.38;;;;;;;;;;4977955;28;20034;-89
2023/01/01 19:56:51;;;;;;;410.88;283.63;;;;;;;;;;4977945;28;20018;-89
2023/01/01 19:59:21;;;;;;;456.80;314.83;;;;;;;;;;4995660;28;20398;-91
2023/01/01 20:01:47;;;;;;;439.00;306.13;;;;;;;;;;4977964;28;20037;-85
2023/01/01 20:04:15;;;;;;;430.02;293.40;;;179.90;2252.80;;;;;;4995066;28;20038;-90
2023/01/01 20:06:41;;;;;;;450.13;311.05;;;179.70;2252.80;;;;;;4974474;28;20113;-87
2023/01/01 20:09:07;;;;;;;433.23;294.42;;;179.60;2252.80;;;;;;4957999;28;20126;-87
2023/01/01 20:11:34;;;;;;;461.27;318.75;;;179.70;2252.80;;;;;;4958272;28;20066;-89
2023/01/01 20:14:03;;;;;;;476.45;326.35;;;179.60;2252.80;;;;;;4957258;28;20031;-85
2023/01/01 20:16:29;;;;;;;465.10;315.38;;;;;;;;;;4956777;28;20066;-85
2023/01/01 20:18:58;;;;;;;435.23;289.42;;;179.30;2252.80;;;;;;4957253;28;20126;-85
2023/01/01 20:24:27;;;;;;;363.60;234.85;;;179.30;2252.80;;;;;;4942005;28;20382;-88
2023/01/01 20:26:55;;;;;;;285.67;189.18;;;179.40;2252.80;;;;;;4958213;28;20054;-91
2023/01/01 20:29:21;;;;;;;287.83;187.13;;;179.40;2252.80;;;;;;4958492;28;20035;-88
2023/01/01 20:31:52;;;;;;;346.17;226.48;;;179.50;2252.80;;;;;;4958504;28;20050;-89
2023/01/01 20:34:18;;;;;;;486.30;323.30;;;179.50;2252.80;;;;;;4958077;28;20385;-90
2023/01/01 20:39:28;;;;;;;301.98;198.05;;;179.40;2252.80;;;;;;4992784;28;20080;-88
2023/01/01 20:41:54;;;;;;;260.17;165.93;;;179.30;2252.80;;;;;;4993669;28;20121;-90
2023/01/01 20:44:20;;;;;;;213.05;136.25;;;179.30;2252.80;;;;;;4994009;28;20445;-90
2023/01/01 20:46:46;;;;;;;183.35;124.68;;;179.20;2252.80;;;;;;4997048;28;20022;-90
2023/01/01 20:49:22;;;;;;;169.80;113.93;;;179.20;2252.80;;;;;;4996536;28;20124;-89
2023/01/01 20:51:50;;;;;;;177.98;117.80;;;179.30;2252.80;;;;;;4981934;28;20039;-90
2023/01/01 20:54:17;;;;;;;162.35;109.93;;;179.30;2252.80;;;;;;4958086;28;20034;-89
2023/01/01 20:56:43;;;;;;;169.20;111.97;;;154.30;2252.80;;;;;;4992438;28;20037;-89
2023/01/01 20:59:16;;;;;;;208.25;136.82;;;179.20;2252.80;;;;;;4996122;28;20022;-87
2023/01/01 21:01:42;;;;;;;224.65;146.18;;;154.40;2252.80;;;;;;4995043;28;20034;-90
2023/01/01 21:31:13;;;;;;;300.80;193.88;;;179.30;2252.80;;;;;;5012797;23;20062;-90
2023/01/01 21:33:44;;;;;;;292.42;193.07;;;154.40;2252.80;;;;;;4996853;28;20022;-91
2023/01/01 21:36:28;;;;;;;293.77;198.10;;;154.40;2252.80;;;;;;4996661;28;20101;-91
2023/01/01 21:39:07;;;;;;;341.05;218.68;;;179.20;2252.80;;;;;;4996025;28;20022;-89
2023/01/01 21:41:33;;;;;;;323.42;208.27;;;179.20;2252.80;;;;;;4996250;28;20089;-89
2023/01/01 21:43:59;;;;;;;344.77;220.70;;;179.20;2252.80;;;;;;4996345;28;20076;-89
2023/01/01 21:46:34;;;;;;;399.83;261.08;;;179.20;2252.80;;;;;;4996212;28;20026;-90
2023/01/01 21:49:15;;;;;;;397.23;253.85;;;179.20;2252.80;;;;;;4996323;28;20030;-88
2023/01/01 21:51:52;;;;;;;417.52;271.88;;;179.20;2252.80;;;;;;4996521;28;20108;-88
2023/01/01 21:54:37;;;;;;;394.63;260.92;;;154.50;2252.80;;;;;;4996037;28;20030;-88